createdAt,value
2023-07-22T00:00:41.485Z,3.20
2023-07-22T00:03:08.576Z,3.37
2023-07-22T00:05:35.525Z,2.87
2023-07-22T00:08:02.561Z,3.10
2023-07-22T00:10:29.409Z,3.40
2023-07-22T00:12:56.197Z,3.67
2023-07-22T00:15:25.036Z,3.30
2023-07-22T00:17:52.674Z,3.00
2023-07-22T00:20:21.222Z,3.30
2023-07-22T00:22:48.233Z,4.10
2023-07-22T00:25:15.097Z,3.90
2023-07-22T00:27:43.074Z,3.37
2023-07-22T00:30:10.672Z,3.50
2023-07-22T00:32:41.790Z,3.17
2023-07-22T00:35:10.787Z,3.17
2023-07-22T00:37:37.689Z,3.30
2023-07-22T00:40:12.981Z,3.60
2023-07-22T00:42:40.702Z,4.60
2023-07-22T00:45:08.608Z,4.07
2023-07-22T00:47:36.506Z,4.20
2023-07-22T00:50:04.965Z,5.00
2023-07-22T00:52:31.963Z,4.40
2023-07-22T00:54:59.388Z,4.10
2023-07-22T00:57:26.367Z,4.50
2023-07-22T00:59:53.235Z,3.97
2023-07-22T01:02:20.667Z,4.60
2023-07-22T01:04:47.687Z,4.10
2023-07-22T01:07:14.465Z,3.47
2023-07-22T01:09:41.899Z,4.40
2023-07-22T01:12:09.899Z,4.07
2023-07-22T01:14:42.061Z,3.87
2023-07-22T01:17:11.361Z,5.10
2023-07-22T01:19:38.140Z,4.77
2023-07-22T01:22:08.585Z,4.40
2023-07-22T01:24:35.790Z,4.77
2023-07-22T01:27:04.615Z,3.90
2023-07-22T01:29:31.976Z,4.23
2023-07-22T01:31:58.735Z,4.00
2023-07-22T01:34:26.146Z,4.20
2023-07-22T01:36:53.878Z,3.80
2023-07-22T01:39:21.870Z,4.67
2023-07-22T01:41:49.152Z,4.90
2023-07-22T01:44:16.317Z,5.13
2023-07-22T01:46:43.211Z,4.30
2023-07-22T01:49:13.659Z,4.27
2023-07-22T01:51:44.252Z,4.50
2023-07-22T01:54:11.661Z,4.87
2023-07-22T01:56:39.150Z,4.20
2023-07-22T01:59:06.552Z,5.27
2023-07-22T02:01:33.992Z,4.90
2023-07-22T02:04:01.286Z,4.57
2023-07-22T02:06:30.444Z,5.37
2023-07-22T02:08:57.797Z,4.80
2023-07-22T02:11:24.629Z,5.90
2023-07-22T02:13:51.439Z,4.37
2023-07-22T02:16:18.441Z,4.63
2023-07-22T02:18:45.320Z,4.87
2023-07-22T02:21:12.108Z,4.23
2023-07-22T02:23:38.901Z,4.30
2023-07-22T02:26:05.931Z,5.50
2023-07-22T02:28:34.857Z,5.20
2023-07-22T02:31:08.450Z,4.87
2023-07-22T02:33:35.896Z,4.97
2023-07-22T02:36:03.232Z,5.33
2023-07-22T02:38:30.080Z,5.77
2023-07-22T02:41:03.273Z,5.50
2023-07-22T02:43:30.228Z,4.43
2023-07-22T02:45:57.091Z,5.30
2023-07-22T02:48:24.067Z,5.80
2023-07-22T02:50:51.075Z,5.40
2023-07-22T02:53:17.924Z,5.93
2023-07-22T02:55:44.815Z,5.90
2023-07-22T02:58:12.835Z,5.80
2023-07-22T03:00:39.629Z,5.70
2023-07-22T03:03:07.120Z,5.27
2023-07-22T03:05:35.070Z,6.03
2023-07-22T03:08:01.968Z,5.80
2023-07-22T03:10:30.196Z,6.40
2023-07-22T03:12:57.205Z,6.13
2023-07-22T03:15:26.944Z,6.67
2023-07-22T03:17:54.214Z,5.10
2023-07-22T03:20:21.567Z,5.33
2023-07-22T03:22:48.400Z,6.27
2023-07-22T03:25:18.332Z,5.83
2023-07-22T03:27:46.042Z,6.43
2023-07-22T03:30:17.255Z,5.80
2023-07-22T03:32:53.661Z,5.53
2023-07-22T03:35:20.598Z,5.40
2023-07-22T03:37:47.423Z,6.20
2023-07-22T03:40:21.580Z,5.30
2023-07-22T03:42:53.079Z,5.83
2023-07-22T03:45:20.939Z,5.90
2023-07-22T03:47:51.421Z,6.20
2023-07-22T03:50:18.224Z,5.90
2023-07-22T03:52:45.020Z,5.90
2023-07-22T03:55:11.946Z,5.50
2023-07-22T03:57:38.901Z,6.03
2023-07-22T04:00:06.884Z,6.40
2023-07-22T04:02:33.684Z,4.90
2023-07-22T04:05:00.458Z,5.17
2023-07-22T04:07:27.266Z,5.60
2023-07-22T04:09:54.011Z,5.80
2023-07-22T04:12:20.787Z,5.13
2023-07-22T04:14:47.602Z,5.87
2023-07-22T04:17:16.431Z,5.87
2023-07-22T04:19:44.523Z,6.30
2023-07-22T04:22:11.363Z,5.30
2023-07-22T04:24:39.167Z,5.43
2023-07-22T04:27:06.376Z,5.03
2023-07-22T04:29:33.971Z,5.60
2023-07-22T04:32:01.871Z,5.63
2023-07-22T04:34:32.930Z,5.57
2023-07-22T04:37:00.158Z,5.53
2023-07-22T04:39:27.426Z,5.83
2023-07-22T04:41:54.350Z,5.20
2023-07-22T04:44:21.294Z,4.93
2023-07-22T04:46:48.179Z,5.40
2023-07-22T04:49:19.038Z,5.20
2023-07-22T04:51:47.542Z,5.30
2023-07-22T04:54:16.100Z,5.27
2023-07-22T04:56:44.123Z,5.37
2023-07-22T04:59:11.666Z,5.13
2023-07-22T05:01:38.596Z,5.17
2023-07-22T05:04:06.358Z,4.20
2023-07-22T05:06:34.032Z,5.10
2023-07-22T05:09:01.046Z,4.60
2023-07-22T05:11:27.871Z,5.30
2023-07-22T05:13:54.688Z,4.90
2023-07-22T05:16:22.683Z,4.57
2023-07-22T05:18:50.561Z,4.00
2023-07-22T05:21:17.541Z,4.63
2023-07-22T05:23:44.396Z,4.70
2023-07-22T05:26:11.614Z,4.03
2023-07-22T05:28:38.433Z,5.27
2023-07-22T05:31:05.478Z,4.87
2023-07-22T05:33:32.320Z,4.57
2023-07-22T05:35:59.718Z,4.60
2023-07-22T05:38:26.504Z,5.70
2023-07-22T05:40:54.522Z,4.70
2023-07-22T05:43:22.440Z,4.77
2023-07-22T05:45:49.380Z,5.10
2023-07-22T05:48:16.335Z,4.60
2023-07-22T05:50:43.192Z,4.80
2023-07-22T05:53:10.211Z,5.80
2023-07-22T05:55:39.534Z,5.10
2023-07-22T05:58:06.821Z,4.90
2023-07-22T06:00:35.144Z,4.80
2023-07-22T06:03:02.320Z,5.07
2023-07-22T06:05:29.681Z,4.80
2023-07-22T06:07:58.225Z,4.90
2023-07-22T06:10:25.127Z,4.53
2023-07-22T06:12:52.087Z,5.00
2023-07-22T06:15:19.102Z,4.13
2023-07-22T06:17:45.952Z,4.80
2023-07-22T06:20:13.077Z,4.13
2023-07-22T06:22:40.033Z,3.73
2023-07-22T06:25:07.615Z,3.47
2023-07-22T06:27:36.188Z,4.20
2023-07-22T06:30:03.272Z,4.10
2023-07-22T06:32:31.237Z,4.00
2023-07-22T06:34:59.104Z,3.70
2023-07-22T06:37:26.749Z,3.87
2023-07-22T06:39:53.607Z,3.60
2023-07-22T06:42:20.424Z,2.97
2023-07-22T06:44:47.259Z,3.97
2023-07-22T06:47:14.395Z,2.80
2023-07-22T06:49:47.090Z,3.77
2023-07-22T06:52:14.828Z,3.27
2023-07-22T06:54:41.985Z,3.50
2023-07-22T06:57:09.497Z,3.17
2023-07-22T06:59:36.562Z,3.47
2023-07-22T07:02:06.083Z,2.60
2023-07-22T07:04:33.152Z,3.10
2023-07-22T07:07:00.565Z,2.27
2023-07-22T07:09:27.782Z,2.73
2023-07-22T07:11:57.835Z,2.90
2023-07-22T07:14:25.881Z,2.43
2023-07-22T07:16:52.805Z,2.40
2023-07-22T07:19:19.684Z,2.50
2023-07-22T07:21:46.507Z,2.10
2023-07-22T07:24:13.576Z,2.90
2023-07-22T07:26:40.436Z,2.40
2023-07-22T07:29:07.242Z,2.50
2023-07-22T07:31:34.290Z,2.10
2023-07-22T07:34:01.092Z,1.97
2023-07-22T07:36:28.212Z,2.17
2023-07-22T07:38:55.583Z,1.93
2023-07-22T07:41:22.749Z,2.43
2023-07-22T07:43:49.510Z,1.90
2023-07-22T07:46:28.353Z,1.93
2023-07-22T07:48:57.329Z,2.20
2023-07-22T07:51:25.909Z,1.70
2023-07-22T07:53:52.763Z,2.00
2023-07-22T07:56:21.011Z,1.60
2023-07-22T07:58:50.428Z,1.73
2023-07-22T08:01:17.710Z,1.60
2023-07-22T08:03:45.663Z,1.80
2023-07-22T08:06:13.015Z,1.47
2023-07-22T08:08:40.269Z,1.93
2023-07-22T08:11:08.833Z,1.90
2023-07-22T08:13:37.205Z,2.03
2023-07-22T08:16:05.851Z,1.90
2023-07-22T08:18:33.431Z,2.63
2023-07-22T08:21:00.916Z,2.23
2023-07-22T08:23:27.678Z,2.10
2023-07-22T08:25:54.662Z,2.00
2023-07-22T08:28:21.588Z,2.00
2023-07-22T08:30:55.162Z,1.90
2023-07-22T08:33:35.061Z,1.87
2023-07-22T08:36:06.599Z,1.80
2023-07-22T08:38:33.520Z,2.00
2023-07-22T08:41:00.277Z,1.80
2023-07-22T08:43:29.822Z,1.67
2023-07-22T08:46:01.645Z,1.90
2023-07-22T08:48:33.946Z,1.50
2023-07-22T08:51:06.353Z,1.70
2023-07-22T08:53:36.340Z,2.10
2023-07-22T08:56:03.526Z,1.83
2023-07-22T08:58:31.003Z,2.03
2023-07-22T09:00:59.432Z,1.73
2023-07-22T09:03:26.457Z,1.47
2023-07-22T09:05:53.773Z,1.40
2023-07-22T09:08:20.595Z,1.67
2023-07-22T09:10:47.731Z,1.70
2023-07-22T09:13:15.776Z,1.30
2023-07-22T09:15:43.484Z,1.83
2023-07-22T09:18:10.424Z,2.53
2023-07-22T09:20:37.422Z,2.20
2023-07-22T09:23:13.302Z,1.97
2023-07-22T09:25:42.387Z,2.00
2023-07-22T09:28:09.792Z,1.90
2023-07-22T09:30:41.005Z,2.47
2023-07-22T09:33:20.832Z,1.53
2023-07-22T09:35:50.165Z,1.87
2023-07-22T09:38:24.567Z,1.80
2023-07-22T09:40:53.031Z,1.60
2023-07-22T09:43:19.934Z,1.50
2023-07-22T09:45:49.409Z,3.87
2023-07-22T09:48:16.648Z,1.87
2023-07-22T09:50:44.130Z,1.70
2023-07-22T09:53:17.391Z,1.87
2023-07-22T09:55:45.191Z,1.60
2023-07-22T09:58:15.826Z,1.80
2023-07-22T10:00:50.104Z,2.20
2023-07-22T10:03:20.164Z,2.00
2023-07-22T10:05:51.257Z,2.00
2023-07-22T10:08:22.140Z,1.67
2023-07-22T10:10:54.437Z,1.67
2023-07-22T10:13:21.638Z,1.77
2023-07-22T10:15:49.316Z,1.70
2023-07-22T10:18:17.845Z,1.43
2023-07-22T10:20:45.513Z,1.30
2023-07-22T10:23:15.292Z,1.20
2023-07-22T10:25:43.300Z,1.40
2023-07-22T10:28:11.939Z,1.40
2023-07-22T10:30:38.851Z,1.67
2023-07-22T10:33:05.842Z,1.17
2023-07-22T10:35:32.622Z,1.30
2023-07-22T10:38:09.048Z,1.47
2023-07-22T10:40:53.438Z,1.37
2023-07-22T10:43:35.143Z,1.60
2023-07-22T10:46:14.870Z,1.10
2023-07-22T10:48:43.277Z,1.37
2023-07-22T10:51:16.324Z,1.27
2023-07-22T10:53:48.587Z,1.20
2023-07-22T10:56:18.278Z,1.47
2023-07-22T10:58:48.417Z,1.23
2023-07-22T11:01:36.349Z,1.30
2023-07-22T11:04:18.553Z,1.23
2023-07-22T11:06:45.390Z,1.23
2023-07-22T11:09:36.200Z,1.33
2023-07-22T11:12:19.415Z,1.63
2023-07-22T11:14:47.660Z,1.30
2023-07-22T11:17:14.992Z,1.60
2023-07-22T11:19:42.203Z,0.90
2023-07-22T11:22:09.167Z,1.30
2023-07-22T11:24:39.657Z,1.20
2023-07-22T11:27:09.439Z,1.10
2023-07-22T11:29:37.103Z,1.33
2023-07-22T11:32:05.239Z,1.47
2023-07-22T11:34:35.849Z,1.37
2023-07-22T11:37:03.767Z,1.20
2023-07-22T11:39:33.865Z,0.70
2023-07-22T11:42:05.212Z,1.10
2023-07-22T11:44:33.058Z,1.10
2023-07-22T11:47:06.741Z,1.30
2023-07-22T11:49:38.517Z,1.30
2023-07-22T11:52:12.566Z,1.10
2023-07-22T11:54:41.621Z,1.40
2023-07-22T11:57:18.019Z,1.37
2023-07-22T11:59:49.744Z,1.37
2023-07-22T12:02:20.338Z,1.40
2023-07-22T12:05:02.346Z,1.17
2023-07-22T12:07:31.569Z,1.17
2023-07-22T12:10:00.734Z,1.10
2023-07-22T12:12:37.777Z,1.30
2023-07-22T12:15:14.488Z,1.30
2023-07-22T12:17:47.153Z,1.20
2023-07-22T12:20:14.791Z,1.10
2023-07-22T12:22:42.757Z,1.60
2023-07-22T12:25:10.042Z,1.37
2023-07-22T12:27:38.518Z,1.60
2023-07-22T12:30:08.170Z,1.30
2023-07-22T12:32:35.294Z,1.67
2023-07-22T12:35:04.119Z,1.23
2023-07-22T12:37:31.522Z,1.20
2023-07-22T12:39:58.559Z,1.40
2023-07-22T12:42:25.636Z,1.30
2023-07-22T12:44:53.080Z,1.50
2023-07-22T12:47:19.902Z,1.43
2023-07-22T12:49:47.016Z,1.20
2023-07-22T12:52:14.515Z,1.37
2023-07-22T12:54:42.148Z,1.20
2023-07-22T12:57:09.167Z,1.20
2023-07-22T12:59:36.105Z,1.20
2023-07-22T13:02:04.162Z,1.03
2023-07-22T13:04:30.984Z,1.10
2023-07-22T13:06:57.769Z,1.23
2023-07-22T13:09:24.665Z,1.37
2023-07-22T13:11:51.511Z,1.13
2023-07-22T13:14:19.672Z,1.37
2023-07-22T13:16:46.602Z,1.30
2023-07-22T13:19:13.450Z,1.30
2023-07-22T13:21:40.414Z,1.50
2023-07-22T13:24:07.207Z,1.47
2023-07-22T13:26:37.860Z,1.43
2023-07-22T13:29:06.275Z,1.30
2023-07-22T13:31:33.191Z,1.50
2023-07-22T13:34:00.067Z,1.60
2023-07-22T13:36:26.900Z,1.20
2023-07-22T13:38:53.777Z,1.27
2023-07-22T13:41:20.758Z,1.27
2023-07-22T13:43:47.648Z,1.73
2023-07-22T13:46:14.514Z,1.37
2023-07-22T13:48:44.400Z,1.33
2023-07-22T13:51:14.282Z,1.40
2023-07-22T13:53:41.093Z,1.50
2023-07-22T13:56:08.321Z,1.30
2023-07-22T13:58:35.109Z,1.60
2023-07-22T14:01:02.695Z,1.20
2023-07-22T14:03:29.822Z,1.23
2023-07-22T14:05:57.084Z,1.10
2023-07-22T14:08:23.946Z,1.23
2023-07-22T14:10:50.985Z,1.20
2023-07-22T14:13:17.782Z,1.33
2023-07-22T14:15:44.670Z,1.30
2023-07-22T14:18:11.452Z,1.50
2023-07-22T14:20:38.235Z,1.70
2023-07-22T14:23:05.849Z,1.53
2023-07-22T14:25:32.676Z,1.57
2023-07-22T14:27:59.445Z,1.23
2023-07-22T14:30:26.372Z,1.20
2023-07-22T14:32:53.303Z,1.40
2023-07-22T14:35:20.159Z,1.50
2023-07-22T14:37:47.799Z,1.60
2023-07-22T14:40:17.696Z,1.50
2023-07-22T14:42:45.117Z,1.50
2023-07-22T14:45:11.964Z,1.63
2023-07-22T14:47:38.841Z,1.50
2023-07-22T14:50:05.964Z,1.50
2023-07-22T14:52:33.090Z,1.20
2023-07-22T14:55:00.003Z,1.20
2023-07-22T14:57:32.129Z,1.33
2023-07-22T14:59:58.997Z,2.03
2023-07-22T15:02:26.035Z,1.00
2023-07-22T15:04:53.257Z,1.43
2023-07-22T15:07:20.012Z,1.50
2023-07-22T15:09:46.818Z,1.57
2023-07-22T15:12:15.583Z,1.33
2023-07-22T15:14:45.539Z,1.37
2023-07-22T15:17:12.297Z,1.47
2023-07-22T15:19:39.163Z,1.33
2023-07-22T15:22:06.417Z,1.80
2023-07-22T15:24:33.205Z,1.60
2023-07-22T15:27:00.013Z,1.40
2023-07-22T15:29:26.924Z,1.90
2023-07-22T15:31:53.809Z,1.40
2023-07-22T15:34:20.616Z,1.40
2023-07-22T15:36:47.835Z,1.10
2023-07-22T15:39:14.667Z,1.63
2023-07-22T15:41:41.701Z,1.60
2023-07-22T15:44:08.528Z,1.20
2023-07-22T15:46:37.662Z,1.83
2023-07-22T15:49:05.703Z,1.10
2023-07-22T15:51:32.529Z,1.90
2023-07-22T15:53:59.587Z,1.73
2023-07-22T15:56:26.458Z,1.40
2023-07-22T15:58:53.271Z,1.53
2023-07-22T16:01:20.421Z,1.63
2023-07-22T16:03:47.210Z,1.27
2023-07-22T16:06:26.767Z,1.70
2023-07-22T16:08:54.186Z,1.30
2023-07-22T16:11:20.998Z,1.70
2023-07-22T16:13:47.841Z,1.60
2023-07-22T16:16:14.633Z,1.80
2023-07-22T16:18:41.508Z,1.83
2023-07-22T16:21:09.340Z,1.60
2023-07-22T16:23:36.970Z,1.50
2023-07-22T16:26:03.838Z,1.63
2023-07-22T16:28:30.597Z,2.30
2023-07-22T16:30:57.471Z,1.67
2023-07-22T16:33:24.325Z,1.80
2023-07-22T16:35:53.932Z,1.70
2023-07-22T16:38:20.718Z,1.30
2023-07-22T16:40:47.537Z,1.60
2023-07-22T16:43:14.357Z,1.60
2023-07-22T16:45:41.292Z,1.70
2023-07-22T16:48:08.056Z,1.70
2023-07-22T16:50:34.882Z,1.80
2023-07-22T16:53:04.134Z,1.47
2023-07-22T16:55:31.257Z,1.70
2023-07-22T16:57:58.032Z,1.60
2023-07-22T17:00:24.843Z,1.30
2023-07-22T17:02:52.020Z,1.90
2023-07-22T17:05:18.899Z,1.50
2023-07-22T17:07:49.594Z,1.47
2023-07-22T17:10:16.462Z,1.40
2023-07-22T17:12:43.507Z,1.53
2023-07-22T17:15:10.774Z,1.87
2023-07-22T17:17:37.640Z,1.47
2023-07-22T17:20:06.386Z,1.57
2023-07-22T17:22:33.197Z,1.90
2023-07-22T17:24:59.984Z,1.40
2023-07-22T17:27:26.737Z,1.87
2023-07-22T17:29:53.591Z,1.90
2023-07-22T17:32:20.420Z,1.90
2023-07-22T17:34:47.178Z,1.60
2023-07-22T17:37:15.018Z,1.53
2023-07-22T17:39:41.936Z,1.50
2023-07-22T17:42:08.802Z,1.50
2023-07-22T17:44:35.712Z,1.60
2023-07-22T17:47:02.558Z,2.20
2023-07-22T17:49:29.378Z,1.47
2023-07-22T17:51:56.298Z,2.13
2023-07-22T17:54:23.160Z,1.33
2023-07-22T17:56:50.029Z,2.27
2023-07-22T17:59:16.844Z,1.23
2023-07-22T18:01:43.623Z,1.70
2023-07-22T18:04:10.404Z,1.70
2023-07-22T18:06:37.239Z,1.30
2023-07-22T18:09:04.220Z,1.00
2023-07-22T18:11:31.453Z,1.50
2023-07-22T18:13:58.618Z,1.60
2023-07-22T18:16:25.577Z,1.47
2023-07-22T18:18:53.851Z,2.30
2023-07-22T18:21:20.734Z,1.30
2023-07-22T18:23:47.544Z,1.70
2023-07-22T18:26:16.455Z,1.50
2023-07-22T18:28:43.399Z,1.77
2023-07-22T18:31:10.413Z,1.67
2023-07-22T18:33:37.363Z,1.43
2023-07-22T18:36:05.915Z,1.23
2023-07-22T18:38:34.611Z,1.20
2023-07-22T18:41:01.754Z,1.70
2023-07-22T18:43:29.015Z,2.07
2023-07-22T18:45:55.819Z,1.30
2023-07-22T18:48:22.775Z,1.50
2023-07-22T18:50:56.480Z,1.70
2023-07-22T18:53:23.412Z,1.47
2023-07-22T18:55:50.290Z,1.40
2023-07-22T18:58:17.107Z,1.70
2023-07-22T19:00:43.906Z,1.40
2023-07-22T19:03:10.720Z,1.80
2023-07-22T19:05:40.616Z,1.60
2023-07-22T19:08:07.556Z,1.43
2023-07-22T19:10:34.440Z,1.93
2023-07-22T19:13:01.323Z,1.50
2023-07-22T19:15:28.086Z,1.67
2023-07-22T19:17:54.940Z,1.40
2023-07-22T19:20:21.754Z,1.73
2023-07-22T19:22:48.580Z,1.73
2023-07-22T19:25:15.446Z,1.70
2023-07-22T19:27:42.442Z,1.27
2023-07-22T19:30:10.411Z,1.90
2023-07-22T19:32:37.434Z,1.83
2023-07-22T19:35:04.488Z,1.40
2023-07-22T19:37:31.481Z,1.40
2023-07-22T19:39:59.648Z,1.60
2023-07-22T19:42:26.476Z,1.50
2023-07-22T19:44:53.237Z,2.17
2023-07-22T19:47:22.935Z,2.20
2023-07-22T19:49:51.909Z,1.90
2023-07-22T19:52:18.951Z,2.30
2023-07-22T19:54:45.937Z,2.00
2023-07-22T19:57:12.718Z,2.10
2023-07-22T19:59:39.524Z,2.13
2023-07-22T20:02:06.927Z,2.30
2023-07-22T20:04:35.290Z,2.27
2023-07-22T20:07:02.067Z,1.83
2023-07-22T20:09:28.955Z,2.07
2023-07-22T20:11:55.749Z,2.03
2023-07-22T20:14:22.715Z,2.13
2023-07-22T20:16:49.473Z,2.27
2023-07-22T20:19:16.301Z,1.93
2023-07-22T20:21:43.209Z,2.50
2023-07-22T20:24:09.990Z,2.30
2023-07-22T20:26:36.811Z,2.23
2023-07-22T20:29:04.157Z,1.87
2023-07-22T20:31:31.117Z,2.03
2023-07-22T20:34:00.165Z,2.50
2023-07-22T20:36:27.020Z,1.90
2023-07-22T20:38:53.790Z,2.07
2023-07-22T20:41:20.689Z,2.53
2023-07-22T20:43:47.740Z,2.13
2023-07-22T20:46:14.647Z,2.80
2023-07-22T20:48:42.603Z,2.50
2023-07-22T20:51:09.953Z,2.07
2023-07-22T20:53:36.976Z,2.00
2023-07-22T20:56:03.846Z,1.93
2023-07-22T20:58:30.677Z,2.80
2023-07-22T21:01:03.046Z,2.40
2023-07-22T21:03:30.055Z,1.97
2023-07-22T21:05:58.487Z,2.60
2023-07-22T21:08:26.148Z,2.77
2023-07-22T21:10:52.987Z,2.43
2023-07-22T21:13:20.583Z,2.27
2023-07-22T21:15:47.904Z,2.50
2023-07-22T21:18:14.839Z,2.33
2023-07-22T21:20:41.647Z,3.40
2023-07-22T21:23:08.683Z,2.57
2023-07-22T21:25:35.499Z,2.70
2023-07-22T21:28:02.339Z,1.60
2023-07-22T21:30:29.184Z,2.87
2023-07-22T21:32:56.065Z,2.67
2023-07-22T21:35:22.920Z,2.60
2023-07-22T21:37:49.786Z,2.60
2023-07-22T21:40:16.815Z,2.57
2023-07-22T21:42:44.948Z,2.50
2023-07-22T21:45:12.005Z,2.57
2023-07-22T21:47:39.057Z,2.27
2023-07-22T21:50:06.667Z,2.63
2023-07-22T21:52:33.454Z,2.63
2023-07-22T21:55:00.259Z,2.70
2023-07-22T21:57:27.185Z,3.03
2023-07-22T21:59:54.072Z,2.47
2023-07-22T22:02:21.032Z,2.90
2023-07-22T22:04:47.878Z,2.80
2023-07-22T22:07:14.642Z,2.93
2023-07-22T22:09:41.606Z,2.40
2023-07-22T22:12:08.628Z,3.10
2023-07-22T22:14:35.409Z,2.73
2023-07-22T22:17:02.283Z,2.80
2023-07-22T22:19:29.197Z,2.80
2023-07-22T22:21:55.960Z,2.70
2023-07-22T22:24:22.730Z,3.00
2023-07-22T22:26:49.526Z,3.43
2023-07-22T22:29:16.298Z,2.40
2023-07-22T22:31:43.197Z,3.03
2023-07-22T22:34:09.960Z,2.63
2023-07-22T22:36:36.772Z,3.03
2023-07-22T22:39:03.574Z,3.00
2023-07-22T22:41:30.631Z,2.80
2023-07-22T22:43:57.578Z,2.60
2023-07-22T22:46:24.400Z,2.80
2023-07-22T22:48:51.206Z,2.90
2023-07-22T22:51:18.064Z,3.23
2023-07-22T22:53:44.829Z,2.40
2023-07-22T22:56:11.648Z,2.87
2023-07-22T22:58:38.497Z,2.37
2023-07-22T23:01:13.447Z,2.70
2023-07-22T23:03:40.297Z,3.57
2023-07-22T23:06:13.760Z,3.10
2023-07-22T23:08:41.117Z,2.70
2023-07-22T23:11:19.016Z,3.50
2023-07-22T23:13:46.891Z,2.93
2023-07-22T23:16:14.364Z,3.47
2023-07-22T23:18:42.682Z,3.20
2023-07-22T23:21:15.601Z,3.00
2023-07-22T23:23:47.657Z,3.00
2023-07-22T23:26:16.020Z,2.50
2023-07-22T23:28:43.734Z,3.17
2023-07-22T23:31:12.141Z,3.37
2023-07-22T23:33:39.170Z,3.30
2023-07-22T23:36:08.526Z,3.13
2023-07-22T23:38:35.853Z,3.73
2023-07-22T23:41:02.714Z,3.10
2023-07-22T23:43:29.536Z,3.00
2023-07-22T23:45:56.874Z,3.43
2023-07-22T23:48:24.962Z,3.27
2023-07-22T23:50:52.127Z,3.07
2023-07-22T23:53:19.136Z,2.70
2023-07-22T23:55:46.006Z,3.50
2023-07-22T23:58:13.082Z,3.67
